createdAt,value
2023-03-28T00:03:39.447Z,19.60
2023-03-28T00:08:45.821Z,18.20
2023-03-28T00:13:48.761Z,15.40
2023-03-28T00:18:51.563Z,16.20
2023-03-28T00:23:56.175Z,13.80
2023-03-28T00:28:58.927Z,15.80
2023-03-28T00:34:01.765Z,15.60
2023-03-28T00:39:06.908Z,15.20
2023-03-28T00:44:43.213Z,12.80
2023-03-28T00:49:46.657Z,12.00
2023-03-28T00:54:51.190Z,13.00
2023-03-28T00:59:53.962Z,13.00
2023-03-28T01:04:59.356Z,12.00
2023-03-28T01:10:05.096Z,12.80
2023-03-28T01:15:09.772Z,12.00
2023-03-28T01:20:35.913Z,10.40
2023-03-28T01:26:21.003Z,14.40
2023-03-28T01:31:33.871Z,12.00
2023-03-28T01:37:11.935Z,9.20
2023-03-28T01:42:24.613Z,11.20
2023-03-28T01:47:29.257Z,12.40
2023-03-28T01:52:36.116Z,9.80
2023-03-28T01:57:42.240Z,9.00
2023-03-28T02:02:49.345Z,10.00
2023-03-28T02:08:11.828Z,8.80
2023-03-28T02:13:19.742Z,11.00
2023-03-28T02:18:38.138Z,11.00
2023-03-28T02:24:02.714Z,9.40
2023-03-28T02:29:23.900Z,8.00
2023-03-28T02:34:56.120Z,7.60
2023-03-28T02:40:07.223Z,11.20
2023-03-28T02:45:35.542Z,8.00
2023-03-28T02:50:40.980Z,7.40
2023-03-28T02:55:47.273Z,8.00
2023-03-28T03:01:14.697Z,6.60
2023-03-28T03:06:19.334Z,8.00
2023-03-28T03:11:25.018Z,7.20
2023-03-28T03:16:29.157Z,7.20
2023-03-28T03:21:33.518Z,6.00
2023-03-28T03:26:37.701Z,6.20
2023-03-28T03:31:41.924Z,5.80
2023-03-28T03:37:17.943Z,8.00
2023-03-28T03:42:22.272Z,6.40
2023-03-28T03:47:25.205Z,7.20
2023-03-28T03:52:28.009Z,6.60
2023-03-28T03:57:32.367Z,7.40
2023-03-28T04:02:37.827Z,7.20
2023-03-28T04:07:42.192Z,7.60
2023-03-28T04:12:54.342Z,6.80
2023-03-28T04:17:57.277Z,6.80
2023-03-28T04:23:01.851Z,5.00
2023-03-28T04:28:09.277Z,5.00
2023-03-28T04:33:18.961Z,4.60
2023-03-28T04:38:23.677Z,5.00
2023-03-28T04:43:33.997Z,4.00
2023-03-28T04:48:36.992Z,6.80
2023-03-28T04:53:40.348Z,4.00
2023-03-28T04:59:04.446Z,6.00
2023-03-28T05:04:07.727Z,4.00
2023-03-28T05:09:12.312Z,5.20
2023-03-28T05:14:16.523Z,4.40
2023-03-28T05:19:25.239Z,5.00
2023-03-28T05:24:44.241Z,5.00
2023-03-28T05:29:53.647Z,5.80
2023-03-28T05:34:56.899Z,5.60
2023-03-28T05:40:06.377Z,4.00
2023-03-28T05:45:12.623Z,4.20
2023-03-28T05:50:35.697Z,5.00
2023-03-28T05:55:42.367Z,4.00
2023-03-28T06:00:46.614Z,4.00
2023-03-28T06:05:49.646Z,4.00
2023-03-28T06:11:03.008Z,4.20
2023-03-28T06:16:14.385Z,4.00
2023-03-28T06:21:17.516Z,4.40
2023-03-28T06:26:21.887Z,3.60
2023-03-28T06:31:26.159Z,4.40
2023-03-28T06:36:28.998Z,4.20
2023-03-28T06:41:32.215Z,2.00
2023-03-28T06:46:36.552Z,4.00
2023-03-28T06:51:40.310Z,4.00
2023-03-28T06:56:43.529Z,4.00
2023-03-28T07:01:47.873Z,2.80
2023-03-28T07:06:53.341Z,3.20
2023-03-28T07:11:56.447Z,2.00
2023-03-28T07:17:01.079Z,4.80
2023-03-28T07:22:04.139Z,4.40
2023-03-28T07:27:15.423Z,4.60
2023-03-28T07:32:22.298Z,3.60
2023-03-28T07:37:25.336Z,3.60
2023-03-28T07:42:46.042Z,4.20
2023-03-28T07:47:50.370Z,56.00
2023-03-28T07:52:57.580Z,79.50
2023-03-28T07:58:02.458Z,103.75
2023-03-28T08:03:09.644Z,144.25
2023-03-28T08:08:12.828Z,180.67
2023-03-28T08:13:15.997Z,233.50
2023-03-28T08:18:21.822Z,275.75
2023-03-28T08:23:26.391Z,248.25
2023-03-28T08:28:54.879Z,331.33
2023-03-28T08:33:59.374Z,344.00
2023-03-28T08:39:10.001Z,340.67
2023-03-28T08:44:26.053Z,355.00
2023-03-28T08:49:32.421Z,376.50
2023-03-28T08:54:37.103Z,388.33
2023-03-28T08:59:41.819Z,387.75
2023-03-28T09:04:46.050Z,387.00
2023-03-28T09:09:59.026Z,367.00
2023-03-28T09:15:34.315Z,341.33
2023-03-28T09:20:43.240Z,328.50
2023-03-28T09:26:09.481Z,334.67
2023-03-28T09:31:14.411Z,313.75
2023-03-28T09:36:20.213Z,309.00
2023-03-28T09:41:27.146Z,309.00
2023-03-28T09:46:48.645Z,298.00
2023-03-28T09:52:17.473Z,290.00
2023-03-28T09:57:20.714Z,294.00
2023-03-28T10:02:26.989Z,292.50
2023-03-28T10:07:34.775Z,288.50
2023-03-28T10:12:48.924Z,271.00
2023-03-28T10:17:51.972Z,260.00
2023-03-28T10:23:04.363Z,259.50
2023-03-28T10:28:14.116Z,252.50
2023-03-28T10:33:24.655Z,243.25
2023-03-28T10:38:48.429Z,224.25
2023-03-28T10:44:18.746Z,222.75
2023-03-28T10:49:31.960Z,210.00
2023-03-28T10:54:51.039Z,65.75
2023-03-28T11:00:10.682Z,46.50
2023-03-28T11:05:23.112Z,70.75
2023-03-28T11:10:31.932Z,63.67
2023-03-28T11:15:43.180Z,61.25
2023-03-28T11:21:02.175Z,61.75
2023-03-28T11:26:09.620Z,62.00
2023-03-28T11:31:46.678Z,59.00
2023-03-28T11:36:53.423Z,61.33
2023-03-28T11:41:59.565Z,60.00
2023-03-28T11:47:15.768Z,59.00
2023-03-28T11:52:22.436Z,57.00
2023-03-28T11:57:29.251Z,56.00
2023-03-28T12:02:42.171Z,57.00
2023-03-28T12:07:48.250Z,58.33
2023-03-28T12:13:06.883Z,54.33
2023-03-28T12:18:16.119Z,54.00
2023-03-28T12:23:22.329Z,49.00
2023-03-28T12:29:03.179Z,50.25
2023-03-28T12:34:09.301Z,57.67
2023-03-28T12:39:38.336Z,177.33
2023-03-28T12:44:53.723Z,265.25
2023-03-28T12:49:57.916Z,252.75
2023-03-28T12:55:02.086Z,334.67
2023-03-28T13:00:26.748Z,382.75
2023-03-28T13:05:57.258Z,317.33
2023-03-28T13:11:07.881Z,292.75
2023-03-28T13:16:15.901Z,281.75
2023-03-28T13:21:42.470Z,256.50
2023-03-28T13:26:54.672Z,237.75
2023-03-28T13:32:03.222Z,216.75
2023-03-28T13:37:22.666Z,200.25
2023-03-28T13:42:30.599Z,203.50
2023-03-28T13:47:38.317Z,79.50
2023-03-28T13:52:41.276Z,108.75
2023-03-28T13:57:44.199Z,116.75
2023-03-28T14:02:49.002Z,116.00
2023-03-28T14:07:52.582Z,118.00
2023-03-28T14:12:55.941Z,115.00
2023-03-28T14:18:00.182Z,114.50
2023-03-28T14:23:03.181Z,112.75
2023-03-28T14:28:09.527Z,104.50
2023-03-28T14:33:20.269Z,103.00
2023-03-28T14:38:29.145Z,106.00
2023-03-28T14:43:32.217Z,110.75
2023-03-28T14:48:36.813Z,99.25
2023-03-28T14:53:42.612Z,102.75
2023-03-28T14:58:45.466Z,93.00
2023-03-28T15:03:50.695Z,91.75
2023-03-28T15:08:55.897Z,97.50
2023-03-28T15:14:01.008Z,94.00
2023-03-28T15:19:07.027Z,93.75
2023-03-28T15:24:11.505Z,92.75
2023-03-28T15:29:16.392Z,96.25
2023-03-28T15:34:22.101Z,97.75
2023-03-28T15:39:25.826Z,88.75
2023-03-28T15:44:30.294Z,88.25
2023-03-28T15:49:37.036Z,83.25
2023-03-28T15:54:42.899Z,85.25
2023-03-28T15:59:48.388Z,79.25
2023-03-28T16:05:00.304Z,79.75
2023-03-28T16:10:03.568Z,84.50
2023-03-28T16:15:11.609Z,84.50
2023-03-28T16:20:25.247Z,86.75
2023-03-28T16:25:28.674Z,78.00
2023-03-28T16:30:33.485Z,81.25
2023-03-28T16:35:37.660Z,76.75
2023-03-28T16:40:40.714Z,77.00
2023-03-28T16:45:43.616Z,84.25
2023-03-28T16:50:55.481Z,83.00
2023-03-28T16:55:58.539Z,72.50
2023-03-28T17:01:05.006Z,72.25
2023-03-28T17:06:10.162Z,68.25
2023-03-28T17:11:13.516Z,64.00
2023-03-28T17:16:16.565Z,66.75
2023-03-28T17:21:20.860Z,61.25
2023-03-28T17:26:23.638Z,60.25
2023-03-28T17:31:26.638Z,57.50
2023-03-28T17:36:30.970Z,56.00
2023-03-28T17:41:33.860Z,58.00
2023-03-28T17:46:37.514Z,55.33
2023-03-28T17:51:41.750Z,56.25
2023-03-28T17:56:44.708Z,57.50
2023-03-28T18:01:47.924Z,56.33
2023-03-28T18:06:53.465Z,58.00
2023-03-28T18:11:56.490Z,57.00
2023-03-28T18:16:59.441Z,53.67
2023-03-28T18:22:03.648Z,53.67
2023-03-28T18:27:06.573Z,50.67
2023-03-28T18:32:09.366Z,51.00
2023-03-28T18:37:13.499Z,50.00
2023-03-28T18:42:16.389Z,49.00
2023-03-28T18:47:19.228Z,49.50
2023-03-28T18:52:23.441Z,46.33
2023-03-28T18:57:27.660Z,44.50
2023-03-28T19:02:30.672Z,46.25
2023-03-28T19:07:34.997Z,45.25
2023-03-28T19:12:37.787Z,41.25
2023-03-28T19:17:40.824Z,42.00
2023-03-28T19:22:45.035Z,41.00
2023-03-28T19:27:51.902Z,40.00
2023-03-28T19:32:54.781Z,39.50
2023-03-28T19:37:59.176Z,40.75
2023-03-28T19:43:02.014Z,35.25
2023-03-28T19:48:04.905Z,38.00
2023-03-28T19:53:09.185Z,37.50
2023-03-28T19:58:12.273Z,33.50
2023-03-28T20:03:15.106Z,39.50
2023-03-28T20:08:19.865Z,36.50
2023-03-28T20:13:23.051Z,33.00
2023-03-28T20:18:26.135Z,33.50
2023-03-28T20:23:31.917Z,34.25
2023-03-28T20:28:34.696Z,29.20
2023-03-28T20:33:38.331Z,27.20
2023-03-28T20:38:42.549Z,30.40
2023-03-28T20:43:47.754Z,27.40
2023-03-28T20:48:53.255Z,23.20
2023-03-28T20:53:58.594Z,28.00
2023-03-28T20:59:01.375Z,32.40
2023-03-28T21:04:04.451Z,27.00
2023-03-28T21:09:09.838Z,25.00
2023-03-28T21:14:13.438Z,29.80
2023-03-28T21:19:16.557Z,27.20
2023-03-28T21:24:20.991Z,25.40
2023-03-28T21:29:24.483Z,24.80
2023-03-28T21:34:33.487Z,24.00
2023-03-28T21:39:37.697Z,24.40
2023-03-28T21:44:40.501Z,25.20
2023-03-28T21:49:45.910Z,22.20
2023-03-28T21:54:50.040Z,22.40
2023-03-28T21:59:52.828Z,25.00
2023-03-28T22:04:55.669Z,25.80
2023-03-28T22:10:01.133Z,24.00
2023-03-28T22:15:04.525Z,22.60
2023-03-28T22:20:08.605Z,25.40
2023-03-28T22:25:13.566Z,20.80
2023-03-28T22:30:16.500Z,22.00
2023-03-28T22:35:19.324Z,19.00
2023-03-28T22:40:23.545Z,18.60
2023-03-28T22:45:26.988Z,23.00
2023-03-28T22:50:29.785Z,21.60
2023-03-28T22:55:33.906Z,21.80
2023-03-28T23:00:37.432Z,20.40
2023-03-28T23:05:40.212Z,21.20
2023-03-28T23:10:44.356Z,18.40
2023-03-28T23:15:47.114Z,19.00
2023-03-28T23:20:50.966Z,19.60
2023-03-28T23:25:55.165Z,17.00
2023-03-28T23:30:57.932Z,18.40
2023-03-28T23:36:00.970Z,17.80
2023-03-28T23:41:06.464Z,18.40
2023-03-28T23:46:09.361Z,20.20
2023-03-28T23:51:12.185Z,20.60
2023-03-28T23:56:16.458Z,17.00
